createdAt,value
2018-09-05T00:03:57.579Z,12.23
2018-09-05T00:06:26.715Z,12.97
2018-09-05T00:08:56.129Z,12.73
2018-09-05T00:11:25.327Z,12.70
2018-09-05T00:13:54.458Z,13.03
2018-09-05T00:16:23.606Z,13.30
2018-09-05T00:18:52.756Z,12.90
2018-09-05T00:21:21.891Z,12.77
2018-09-05T00:23:51.076Z,13.27
2018-09-05T00:26:20.258Z,12.47
2018-09-05T00:28:49.474Z,13.53
2018-09-05T00:31:18.605Z,12.87
2018-09-05T00:33:47.758Z,12.77
2018-09-05T00:36:16.917Z,14.17
2018-09-05T00:38:46.079Z,12.77
2018-09-05T00:41:15.289Z,12.83
2018-09-05T00:43:44.429Z,11.67
2018-09-05T00:46:13.567Z,12.67
2018-09-05T00:48:42.721Z,13.53
2018-09-05T00:51:12.167Z,13.53
2018-09-05T00:53:41.316Z,13.40
2018-09-05T00:56:10.433Z,13.80
2018-09-05T00:58:39.565Z,15.80
2018-09-05T01:01:08.851Z,14.33
2018-09-05T01:03:38.047Z,17.10
2018-09-05T01:06:07.227Z,14.20
2018-09-05T01:08:36.390Z,14.03
2018-09-05T01:11:05.604Z,13.73
2018-09-05T01:13:34.789Z,13.23
2018-09-05T01:16:03.976Z,13.90
2018-09-05T01:18:33.133Z,14.27
2018-09-05T01:21:02.285Z,13.37
2018-09-05T01:23:31.523Z,12.93
2018-09-05T01:26:00.710Z,13.50
2018-09-05T01:28:29.857Z,13.27
2018-09-05T01:30:59.001Z,14.30
2018-09-05T01:33:28.197Z,14.73
2018-09-05T01:36:02.649Z,14.10
2018-09-05T01:38:31.828Z,14.07
2018-09-05T01:41:00.964Z,13.87
2018-09-05T01:43:30.150Z,13.40
2018-09-05T01:45:59.314Z,14.10
2018-09-05T01:48:28.575Z,14.13
2018-09-05T01:50:57.799Z,13.60
2018-09-05T01:53:26.951Z,13.73
2018-09-05T01:55:56.077Z,13.13
2018-09-05T01:58:25.303Z,12.57
2018-09-05T02:00:54.557Z,14.43
2018-09-05T02:03:23.692Z,13.93
2018-09-05T02:05:52.904Z,14.07
2018-09-05T02:08:22.057Z,13.73
2018-09-05T02:10:51.158Z,14.20
2018-09-05T02:13:20.282Z,14.20
2018-09-05T02:15:49.425Z,14.20
2018-09-05T02:18:18.530Z,13.17
2018-09-05T02:20:47.662Z,13.63
2018-09-05T02:23:16.797Z,13.27
2018-09-05T02:25:46.005Z,13.53
2018-09-05T02:28:15.157Z,12.97
2018-09-05T02:30:44.337Z,13.97
2018-09-05T02:33:13.619Z,13.47
2018-09-05T02:35:42.827Z,13.40
2018-09-05T02:38:11.956Z,13.57
2018-09-05T02:40:41.130Z,14.60
2018-09-05T02:43:10.221Z,12.67
2018-09-05T02:45:39.378Z,13.00
2018-09-05T02:48:08.534Z,14.20
2018-09-05T02:50:37.717Z,13.40
2018-09-05T02:53:06.840Z,14.23
2018-09-05T02:55:41.258Z,13.77
2018-09-05T02:58:10.438Z,14.50
2018-09-05T03:00:39.631Z,12.77
2018-09-05T03:03:08.741Z,13.70
2018-09-05T03:05:37.865Z,13.53
2018-09-05T03:08:07.039Z,13.73
2018-09-05T03:10:36.179Z,13.67
2018-09-05T03:13:05.418Z,13.80
2018-09-05T03:15:34.610Z,14.30
2018-09-05T03:18:03.778Z,13.60
2018-09-05T03:20:32.972Z,13.73
2018-09-05T03:23:02.131Z,13.93
2018-09-05T03:25:31.269Z,13.60
2018-09-05T03:28:00.478Z,14.40
2018-09-05T03:30:29.702Z,14.70
2018-09-05T03:32:58.881Z,15.07
2018-09-05T03:35:27.998Z,15.13
2018-09-05T03:37:58.111Z,14.13
2018-09-05T03:40:27.277Z,15.37
2018-09-05T03:42:56.424Z,14.93
2018-09-05T03:45:25.569Z,14.97
2018-09-05T03:47:54.705Z,15.00
2018-09-05T03:50:23.818Z,15.83
2018-09-05T03:52:52.952Z,14.40
2018-09-05T03:55:22.170Z,14.23
2018-09-05T03:57:51.299Z,14.97
2018-09-05T04:00:20.604Z,14.57
2018-09-05T04:02:49.702Z,14.97
2018-09-05T04:05:18.862Z,14.63
2018-09-05T04:07:48.046Z,15.20
2018-09-05T04:10:17.171Z,14.97
2018-09-05T04:12:46.313Z,15.13
2018-09-05T04:15:15.464Z,15.63
2018-09-05T04:17:44.638Z,15.50
2018-09-05T04:20:13.802Z,15.43
2018-09-05T04:22:42.944Z,16.10
2018-09-05T04:25:12.088Z,15.27
2018-09-05T04:27:41.330Z,15.20
2018-09-05T04:30:10.461Z,16.20
2018-09-05T04:32:39.630Z,15.43
2018-09-05T04:35:08.793Z,16.00
2018-09-05T04:37:37.947Z,15.33
2018-09-05T04:40:07.164Z,14.77
2018-09-05T04:42:36.322Z,15.03
2018-09-05T04:45:05.528Z,15.03
2018-09-05T04:47:34.870Z,15.80
2018-09-05T04:50:04.124Z,16.27
2018-09-05T04:52:33.315Z,15.57
2018-09-05T04:55:02.429Z,15.13
2018-09-05T04:57:31.597Z,15.20
2018-09-05T05:00:00.768Z,15.87
2018-09-05T05:02:29.941Z,14.87
2018-09-05T05:04:59.114Z,14.80
2018-09-05T05:07:28.385Z,14.63
2018-09-05T05:09:57.491Z,14.60
2018-09-05T05:12:51.778Z,14.77
2018-09-05T05:15:20.948Z,15.87
2018-09-05T05:17:50.086Z,15.50
2018-09-05T05:20:19.208Z,15.07
2018-09-05T05:22:48.376Z,14.10
2018-09-05T05:25:17.544Z,14.30
2018-09-05T05:27:46.677Z,15.37
2018-09-05T05:30:15.786Z,15.30
2018-09-05T05:32:44.992Z,15.40
2018-09-05T05:35:14.056Z,17.60
2018-09-05T05:37:43.313Z,17.07
2018-09-05T05:40:12.470Z,17.63
2018-09-05T05:42:41.521Z,15.97
2018-09-05T05:45:10.653Z,16.57
2018-09-05T05:47:39.773Z,16.20
2018-09-05T05:50:09.003Z,17.03
2018-09-05T05:52:38.145Z,16.50
2018-09-05T05:55:07.409Z,16.27
2018-09-05T05:57:36.591Z,16.37
2018-09-05T06:00:06.188Z,17.40
2018-09-05T06:02:35.346Z,15.60
2018-09-05T06:05:04.570Z,17.07
2018-09-05T06:07:33.720Z,17.20
2018-09-05T06:10:02.926Z,17.57
2018-09-05T06:12:32.070Z,17.67
2018-09-05T06:15:01.242Z,17.77
2018-09-05T06:17:30.421Z,16.57
2018-09-05T06:19:59.558Z,17.53
2018-09-05T06:22:28.741Z,18.37
2018-09-05T06:24:57.991Z,33.57
2018-09-05T06:27:27.269Z,24.30
2018-09-05T06:29:56.458Z,19.93
2018-09-05T06:32:25.760Z,19.87
2018-09-05T06:34:54.894Z,18.50
2018-09-05T06:37:26.906Z,17.73
2018-09-05T06:39:56.034Z,17.97
2018-09-05T06:42:25.454Z,17.87
2018-09-05T06:44:54.675Z,18.60
2018-09-05T06:47:24.967Z,20.00
2018-09-05T06:49:54.152Z,19.00
2018-09-05T06:52:23.298Z,18.43
2018-09-05T06:54:52.594Z,18.77
2018-09-05T06:57:21.765Z,19.80
2018-09-05T06:59:51.050Z,20.73
2018-09-05T07:02:20.203Z,19.27
2018-09-05T07:04:49.945Z,18.67
2018-09-05T07:07:19.217Z,18.47
2018-09-05T07:09:48.643Z,18.10
2018-09-05T07:12:17.809Z,17.00
2018-09-05T07:14:46.938Z,17.77
2018-09-05T07:17:16.113Z,16.80
2018-09-05T07:19:45.246Z,16.70
2018-09-05T07:22:14.426Z,16.87
2018-09-05T07:24:43.580Z,16.80
2018-09-05T07:27:12.880Z,15.97
2018-09-05T07:29:42.158Z,14.33
2018-09-05T07:32:11.449Z,18.63
2018-09-05T07:34:40.634Z,16.50
2018-09-05T07:37:09.823Z,18.27
2018-09-05T07:39:39.037Z,16.23
2018-09-05T07:42:08.173Z,18.00
2018-09-05T07:44:37.409Z,20.00
2018-09-05T07:47:06.591Z,18.23
2018-09-05T07:49:35.826Z,17.93
2018-09-05T07:52:05.084Z,16.67
2018-09-05T07:54:34.251Z,16.63
2018-09-05T07:57:03.534Z,14.77
2018-09-05T07:59:32.767Z,17.73
2018-09-05T08:02:02.003Z,14.43
2018-09-05T08:04:31.293Z,14.77
2018-09-05T08:07:00.438Z,16.27
2018-09-05T08:09:29.686Z,16.40
2018-09-05T08:11:58.909Z,15.60
2018-09-05T08:14:28.062Z,18.00
2018-09-05T08:16:57.251Z,18.03
2018-09-05T08:19:26.456Z,16.53
2018-09-05T08:21:55.585Z,17.97
2018-09-05T08:24:24.843Z,17.03
2018-09-05T08:26:53.957Z,17.13
2018-09-05T08:29:23.139Z,16.73
2018-09-05T08:31:52.234Z,16.63
2018-09-05T08:34:21.550Z,17.80
2018-09-05T08:36:51.178Z,16.40
2018-09-05T08:39:20.275Z,14.77
2018-09-05T08:41:49.529Z,13.30
2018-09-05T08:44:18.714Z,18.10
2018-09-05T08:46:47.783Z,18.70
2018-09-05T08:49:16.986Z,17.90
2018-09-05T08:51:46.182Z,17.47
2018-09-05T08:54:15.378Z,15.10
2018-09-05T08:56:44.930Z,17.47
2018-09-05T08:59:14.134Z,17.37
2018-09-05T09:01:43.265Z,18.47
2018-09-05T09:04:12.474Z,19.27
2018-09-05T09:06:41.652Z,20.03
2018-09-05T09:09:11.752Z,20.13
2018-09-05T09:11:40.924Z,19.50
2018-09-05T09:14:10.793Z,20.97
2018-09-05T09:16:40.073Z,16.00
2018-09-05T09:19:09.214Z,21.97
2018-09-05T09:21:38.382Z,21.60
2018-09-05T09:24:08.339Z,19.77
2018-09-05T09:26:37.562Z,22.43
2018-09-05T09:29:06.709Z,25.37
2018-09-05T09:31:35.889Z,19.60
2018-09-05T09:34:05.030Z,21.90
2018-09-05T09:36:35.006Z,20.67
2018-09-05T09:39:06.332Z,22.63
2018-09-05T09:41:35.537Z,21.87
2018-09-05T09:44:04.737Z,24.93
2018-09-05T09:46:34.448Z,22.63
2018-09-05T09:49:03.641Z,23.97
2018-09-05T09:51:32.835Z,22.60
2018-09-05T09:54:02.004Z,18.87
2018-09-05T09:56:31.317Z,21.07
2018-09-05T09:59:00.450Z,20.27
2018-09-05T10:01:35.077Z,22.43
2018-09-05T10:04:09.926Z,18.90
2018-09-05T10:07:42.733Z,17.93
2018-09-05T10:10:17.569Z,17.83
2018-09-05T10:12:48.831Z,20.43
2018-09-05T10:15:23.617Z,19.80
2018-09-05T10:17:58.148Z,20.20
2018-09-05T10:20:27.338Z,20.00
2018-09-05T10:22:56.601Z,19.07
2018-09-05T10:25:25.779Z,19.63
2018-09-05T10:27:54.933Z,18.87
2018-09-05T10:30:24.153Z,19.57
2018-09-05T10:32:53.328Z,20.80
2018-09-05T10:35:22.510Z,19.97
2018-09-05T10:37:51.750Z,19.10
2018-09-05T10:40:20.874Z,18.50
2018-09-05T10:42:50.062Z,18.53
2018-09-05T10:45:19.221Z,17.23
2018-09-05T10:47:48.415Z,18.77
2018-09-05T10:50:17.652Z,19.53
2018-09-05T10:52:46.797Z,18.70
2018-09-05T10:55:15.991Z,17.93
2018-09-05T10:57:45.159Z,18.03
2018-09-05T11:00:15.372Z,15.80
2018-09-05T11:02:44.521Z,18.00
2018-09-05T11:05:13.732Z,17.00
2018-09-05T11:07:42.929Z,17.67
2018-09-05T11:10:12.087Z,16.70
2018-09-05T11:12:41.230Z,18.27
2018-09-05T11:15:10.356Z,19.43
2018-09-05T11:17:39.639Z,17.47
2018-09-05T11:20:10.589Z,18.87
2018-09-05T11:22:40.293Z,18.97
2018-09-05T11:25:09.468Z,16.33
2018-09-05T11:27:38.690Z,17.85
2018-09-05T11:30:07.870Z,18.27
2018-09-05T11:32:36.985Z,16.57
2018-09-05T11:35:06.243Z,16.53
2018-09-05T11:37:35.592Z,15.40
2018-09-05T11:40:04.893Z,17.37
2018-09-05T11:42:34.038Z,17.60
2018-09-05T11:45:03.195Z,15.20
2018-09-05T11:47:32.371Z,15.95
2018-09-05T11:50:01.697Z,15.87
2018-09-05T11:52:30.894Z,15.32
2018-09-05T11:55:00.049Z,17.85
2018-09-05T11:57:29.269Z,15.18
2018-09-05T11:59:58.470Z,16.12
2018-09-05T12:02:27.690Z,15.32
2018-09-05T12:04:56.953Z,14.45
2018-09-05T12:07:26.067Z,13.98
2018-09-05T12:09:55.302Z,14.78
2018-09-05T12:12:24.486Z,14.38
2018-09-05T12:14:53.653Z,13.93
2018-09-05T12:17:22.838Z,14.28
2018-09-05T12:19:52.004Z,13.68
2018-09-05T12:22:21.191Z,13.25
2018-09-05T12:24:50.356Z,12.95
2018-09-05T12:27:19.516Z,14.28
2018-09-05T12:29:48.669Z,13.48
2018-09-05T12:32:17.850Z,13.30
2018-09-05T12:34:47.137Z,13.08
2018-09-05T12:37:16.301Z,13.00
2018-09-05T12:39:45.598Z,12.15
2018-09-05T12:42:14.719Z,13.43
2018-09-05T12:44:43.949Z,13.43
2018-09-05T12:47:13.165Z,13.32
2018-09-05T12:49:42.366Z,13.90
2018-09-05T12:52:11.534Z,14.25
2018-09-05T12:54:40.707Z,13.48
2018-09-05T12:57:09.946Z,12.98
2018-09-05T12:59:39.132Z,13.20
2018-09-05T13:02:08.679Z,13.65
2018-09-05T13:04:38.026Z,12.50
2018-09-05T13:07:07.226Z,12.23
2018-09-05T13:09:36.415Z,12.20
2018-09-05T13:12:05.686Z,13.70
2018-09-05T13:14:34.872Z,12.88
2018-09-05T13:17:04.018Z,11.38
2018-09-05T13:19:33.150Z,12.33
2018-09-05T13:22:02.310Z,12.33
2018-09-05T13:24:31.517Z,12.10
2018-09-05T13:27:00.779Z,12.20
2018-09-05T13:29:29.862Z,12.88
2018-09-05T13:31:59.461Z,12.40
2018-09-05T13:34:28.646Z,12.70
2018-09-05T13:36:57.873Z,12.73
2018-09-05T13:39:27.120Z,11.80
2018-09-05T13:41:56.222Z,12.58
2018-09-05T13:44:25.414Z,12.25
2018-09-05T13:46:54.573Z,13.03
2018-09-05T13:49:23.765Z,11.60
2018-09-05T13:51:58.374Z,11.73
2018-09-05T13:54:27.561Z,12.03
2018-09-05T13:56:56.803Z,11.63
2018-09-05T13:59:25.952Z,11.20
2018-09-05T14:01:55.358Z,13.30
2018-09-05T14:04:24.570Z,13.83
2018-09-05T14:06:54.049Z,13.10
2018-09-05T14:09:23.182Z,13.30
2018-09-05T14:11:52.498Z,13.03
2018-09-05T14:14:21.651Z,12.88
2018-09-05T14:16:50.950Z,13.08
2018-09-05T14:19:20.265Z,12.63
2018-09-05T14:21:49.415Z,12.90
2018-09-05T14:24:18.661Z,12.73
2018-09-05T14:26:47.855Z,12.43
2018-09-05T14:29:16.990Z,12.70
2018-09-05T14:31:46.127Z,13.18
2018-09-05T14:34:15.274Z,12.60
2018-09-05T14:36:44.566Z,13.68
2018-09-05T14:39:14.159Z,13.30
2018-09-05T14:41:43.349Z,12.43
2018-09-05T14:44:12.619Z,12.85
2018-09-05T14:46:41.777Z,12.28
2018-09-05T14:49:10.925Z,12.90
2018-09-05T14:51:40.082Z,13.48
2018-09-05T14:54:09.321Z,12.15
2018-09-05T14:56:38.369Z,13.20
2018-09-05T14:59:07.555Z,12.75
2018-09-05T15:01:36.706Z,13.70
2018-09-05T15:04:05.955Z,13.48
2018-09-05T15:06:35.151Z,12.23
2018-09-05T15:09:06.393Z,12.63
2018-09-05T15:11:35.542Z,12.98
2018-09-05T15:14:04.730Z,11.95
2018-09-05T15:16:33.995Z,13.00
2018-09-05T15:19:03.185Z,13.20
2018-09-05T15:21:32.364Z,13.88
2018-09-05T15:24:01.523Z,12.73
2018-09-05T15:26:30.764Z,12.75
2018-09-05T15:28:59.985Z,12.65
2018-09-05T15:31:29.163Z,13.13
2018-09-05T15:33:58.357Z,14.50
2018-09-05T15:36:27.506Z,12.90
2018-09-05T15:38:56.797Z,14.23
2018-09-05T15:41:25.933Z,13.95
2018-09-05T15:43:55.147Z,30.97
2018-09-05T15:46:24.312Z,21.65
2018-09-05T15:48:53.534Z,35.83
2018-09-05T15:51:22.701Z,15.95
2018-09-05T15:53:51.929Z,19.75
2018-09-05T15:56:21.046Z,13.50
2018-09-05T15:58:50.315Z,12.37
2018-09-05T16:01:19.520Z,14.43
2018-09-05T16:03:48.643Z,14.60
2018-09-05T16:06:17.818Z,12.78
2018-09-05T16:08:47.034Z,13.38
2018-09-05T16:11:16.236Z,12.70
2018-09-05T16:13:45.494Z,11.20
2018-09-05T16:16:16.988Z,12.75
2018-09-05T16:18:46.382Z,12.82
2018-09-05T16:21:15.853Z,13.90
2018-09-05T16:23:45.469Z,12.75
2018-09-05T16:26:15.008Z,12.90
2018-09-05T16:28:44.452Z,12.75
2018-09-05T16:31:13.848Z,12.60
2018-09-05T16:33:43.319Z,13.28
2018-09-05T16:36:12.767Z,13.32
2018-09-05T16:38:42.258Z,13.10
2018-09-05T16:41:11.652Z,12.78
2018-09-05T16:43:41.070Z,12.98
2018-09-05T16:46:10.443Z,12.98
2018-09-05T16:48:39.969Z,12.50
2018-09-05T16:51:09.779Z,12.85
2018-09-05T16:53:39.357Z,13.53
2018-09-05T16:56:08.734Z,12.30
2018-09-05T16:58:43.340Z,11.45
2018-09-05T17:01:13.233Z,13.10
2018-09-05T17:03:42.689Z,12.70
2018-09-05T17:06:11.991Z,13.72
2018-09-05T17:08:41.479Z,14.05
2018-09-05T17:11:10.931Z,13.40
2018-09-05T17:13:40.318Z,13.88
2018-09-05T17:16:09.710Z,12.95
2018-09-05T17:18:39.243Z,14.35
2018-09-05T17:21:08.788Z,14.30
2018-09-05T17:23:38.129Z,15.05
2018-09-05T17:26:08.461Z,13.50
2018-09-05T17:28:37.831Z,14.05
2018-09-05T17:31:07.529Z,13.75
2018-09-05T17:33:37.014Z,14.33
2018-09-05T17:36:06.499Z,14.40
2018-09-05T17:38:35.909Z,14.40
2018-09-05T17:41:05.357Z,13.93
2018-09-05T17:43:34.795Z,13.25
2018-09-05T17:46:04.222Z,14.55
2018-09-05T17:48:33.705Z,13.40
2018-09-05T17:51:02.999Z,14.23
2018-09-05T17:53:32.453Z,15.85
2018-09-05T17:56:01.753Z,13.35
2018-09-05T17:58:31.090Z,14.58
2018-09-05T18:01:03.252Z,15.23
2018-09-05T18:03:32.925Z,14.53
2018-09-05T18:06:02.301Z,14.83
2018-09-05T18:08:31.684Z,14.20
2018-09-05T18:11:01.056Z,16.25
2018-09-05T18:13:30.671Z,14.35
2018-09-05T18:16:00.063Z,15.27
2018-09-05T18:18:30.116Z,13.98
2018-09-05T18:20:59.665Z,14.35
2018-09-05T18:23:29.076Z,15.10
2018-09-05T18:25:58.656Z,14.35
2018-09-05T18:28:28.044Z,13.83
2018-09-05T18:30:57.495Z,14.43
2018-09-05T18:33:26.912Z,14.70
2018-09-05T18:35:56.277Z,14.10
2018-09-05T18:38:25.653Z,14.27
2018-09-05T18:40:55.018Z,14.23
2018-09-05T18:43:24.468Z,16.05
2018-09-05T18:45:53.783Z,15.80
2018-09-05T18:48:23.157Z,14.97
2018-09-05T18:50:52.537Z,17.03
2018-09-05T18:53:21.938Z,16.23
2018-09-05T18:55:51.333Z,15.10
2018-09-05T18:58:20.682Z,12.93
2018-09-05T19:00:50.007Z,13.67
2018-09-05T19:03:19.397Z,13.75
2018-09-05T19:05:48.724Z,13.70
2018-09-05T19:08:18.063Z,17.50
2018-09-05T19:10:47.409Z,18.43
2018-09-05T19:13:16.700Z,16.00
2018-09-05T19:15:46.114Z,13.63
2018-09-05T19:18:15.595Z,14.00
2018-09-05T19:20:51.757Z,14.43
2018-09-05T19:23:21.101Z,14.40
2018-09-05T19:25:50.452Z,13.23
2018-09-05T19:28:19.749Z,12.83
2018-09-05T19:30:49.094Z,13.57
2018-09-05T19:33:18.455Z,13.23
2018-09-05T19:35:47.873Z,13.07
2018-09-05T19:38:17.254Z,13.65
2018-09-05T19:40:46.627Z,12.27
2018-09-05T19:43:15.968Z,12.43
2018-09-05T19:45:45.430Z,12.63
2018-09-05T19:48:14.746Z,12.53
2018-09-05T19:50:44.124Z,12.60
2018-09-05T19:53:13.404Z,12.37
2018-09-05T19:55:42.700Z,12.27
2018-09-05T19:58:12.043Z,12.87
2018-09-05T20:00:41.388Z,13.27
2018-09-05T20:03:10.762Z,12.30
2018-09-05T20:05:40.124Z,12.23
2018-09-05T20:08:09.451Z,13.43
2018-09-05T20:10:38.862Z,13.80
2018-09-05T20:13:08.494Z,13.90
2018-09-05T20:15:37.997Z,13.10
2018-09-05T20:18:07.995Z,13.80
2018-09-05T20:20:37.604Z,14.17
2018-09-05T20:23:06.995Z,14.03
2018-09-05T20:25:36.312Z,13.67
2018-09-05T20:28:05.720Z,13.27
2018-09-05T20:30:35.054Z,13.53
2018-09-05T20:33:04.544Z,14.20
2018-09-05T20:35:33.799Z,14.77
2018-09-05T20:38:03.243Z,15.20
2018-09-05T20:40:32.782Z,15.17
2018-09-05T20:43:02.196Z,14.23
2018-09-05T20:45:31.540Z,15.10
2018-09-05T20:48:00.888Z,14.40
2018-09-05T20:50:30.299Z,13.70
2018-09-05T20:52:59.745Z,13.53
2018-09-05T20:55:29.091Z,13.13
2018-09-05T20:57:58.436Z,12.60
2018-09-05T21:00:27.820Z,12.33
2018-09-05T21:02:57.141Z,12.73
2018-09-05T21:05:26.500Z,13.27
2018-09-05T21:07:55.888Z,14.07
2018-09-05T21:10:25.235Z,14.27
2018-09-05T21:12:54.530Z,13.50
2018-09-05T21:15:23.862Z,12.97
2018-09-05T21:17:53.313Z,13.03
2018-09-05T21:20:22.699Z,12.83
2018-09-05T21:22:52.011Z,12.83
2018-09-05T21:25:21.422Z,13.27
2018-09-05T21:27:50.735Z,13.50
2018-09-05T21:30:20.215Z,13.53
2018-09-05T21:32:49.538Z,13.77
2018-09-05T21:35:18.874Z,13.07
2018-09-05T21:37:48.172Z,12.73
2018-09-05T21:40:17.488Z,14.13
2018-09-05T21:42:46.874Z,13.17
2018-09-05T21:45:16.197Z,13.43
2018-09-05T21:47:45.496Z,12.63
2018-09-05T21:50:14.859Z,14.23
2018-09-05T21:52:44.240Z,14.23
2018-09-05T21:55:13.546Z,13.53
2018-09-05T21:57:42.943Z,13.60
2018-09-05T22:00:12.586Z,13.03
2018-09-05T22:02:42.072Z,13.00
2018-09-05T22:05:11.425Z,13.43
2018-09-05T22:07:40.837Z,13.47
2018-09-05T22:10:10.217Z,13.13
2018-09-05T22:12:39.551Z,14.43
2018-09-05T22:15:08.891Z,13.97
2018-09-05T22:17:38.679Z,13.87
2018-09-05T22:20:08.268Z,14.17
2018-09-05T22:22:37.585Z,13.63
2018-09-05T22:25:06.945Z,14.00
2018-09-05T22:27:36.314Z,13.97
2018-09-05T22:30:05.726Z,15.07
2018-09-05T22:32:35.071Z,13.30
2018-09-05T22:35:04.811Z,14.03
2018-09-05T22:37:34.158Z,13.33
2018-09-05T22:40:03.626Z,14.43
2018-09-05T22:42:32.904Z,14.70
2018-09-05T22:46:13.976Z,14.17
2018-09-05T22:51:05.314Z,14.20
2018-09-05T22:54:58.415Z,13.93
2018-09-05T22:57:44.443Z,14.47
2018-09-05T23:01:25.583Z,14.17
2018-09-05T23:04:19.195Z,13.63
2018-09-05T23:07:01.455Z,14.30
2018-09-05T23:09:42.106Z,14.33
2018-09-05T23:12:22.489Z,14.43
2018-09-05T23:15:03.575Z,14.70
2018-09-05T23:17:44.099Z,15.80
2018-09-05T23:20:25.490Z,15.20
2018-09-05T23:23:06.901Z,15.80
2018-09-05T23:25:36.301Z,14.70
2018-09-05T23:29:34.895Z,15.37
2018-09-05T23:32:04.042Z,15.43
2018-09-05T23:34:33.214Z,15.40
2018-09-05T23:37:02.346Z,15.00
2018-09-05T23:39:31.503Z,15.67
2018-09-05T23:42:00.649Z,16.00
2018-09-05T23:44:29.807Z,15.43
2018-09-05T23:46:58.955Z,15.47
2018-09-05T23:49:28.185Z,16.53
2018-09-05T23:51:57.367Z,14.47
2018-09-05T23:54:26.514Z,15.50
2018-09-05T23:56:55.730Z,16.87
2018-09-05T23:59:24.854Z,15.67
